sensor_id;sensor_type;location;lat;lon;timestamp;pressure;altitude;pressure_sealevel;temperature;humidity
64704;BME280;51130;52.298;13.686;2022-09-03T00:01:19;76988.94;;;-141.89;63.08
64704;BME280;51130;52.298;13.686;2022-09-03T00:03:58;76990.94;;;-141.89;63.09
64704;BME280;51130;52.298;13.686;2022-09-03T00:06:30;76984.94;;;-141.89;63.22
64704;BME280;51130;52.298;13.686;2022-09-03T00:09:06;76996.94;;;-141.89;63.24
64704;BME280;51130;52.298;13.686;2022-09-03T00:11:37;76994.94;;;-141.89;62.96
64704;BME280;51130;52.298;13.686;2022-09-03T00:14:06;76990.94;;;-141.89;63.01
64704;BME280;51130;52.298;13.686;2022-09-03T00:19:10;76990.94;;;-141.89;63.11
64704;BME280;51130;52.298;13.686;2022-09-03T00:21:45;76988.94;;;-141.89;63.36
64704;BME280;51130;52.298;13.686;2022-09-03T00:24:13;76990.94;;;-141.89;63.17
64704;BME280;51130;52.298;13.686;2022-09-03T00:26:41;76990.94;;;-141.89;63.11
64704;BME280;51130;52.298;13.686;2022-09-03T00:29:12;76990.94;;;-141.89;63.22
64704;BME280;51130;52.298;13.686;2022-09-03T00:31:44;76994.94;;;-141.89;63.28
64704;BME280;51130;52.298;13.686;2022-09-03T00:36:43;76994.94;;;-141.89;63.27
64704;BME280;51130;52.298;13.686;2022-09-03T00:39:11;76990.94;;;-141.89;63.16
64704;BME280;51130;52.298;13.686;2022-09-03T00:41:42;76988.94;;;-141.89;63.25
64704;BME280;51130;52.298;13.686;2022-09-03T00:47:04;76994.94;;;-141.89;63.42
64704;BME280;51130;52.298;13.686;2022-09-03T00:50:13;76994.94;;;-141.89;62.79
64704;BME280;51130;52.298;13.686;2022-09-03T00:52:37;76990.94;;;-141.89;62.29
64704;BME280;51130;52.298;13.686;2022-09-03T01:00:16;76976.94;;;-141.89;62.25
64704;BME280;51130;52.298;13.686;2022-09-03T01:05:18;76980.94;;;-141.89;62.68
64704;BME280;51130;52.298;13.686;2022-09-03T01:07:56;76980.94;;;-141.89;62.63
64704;BME280;51130;52.298;13.686;2022-09-03T01:13:16;76980.94;;;-141.89;62.58
64704;BME280;51130;52.298;13.686;2022-09-03T01:15:44;76978.94;;;-141.89;62.65
64704;BME280;51130;52.298;13.686;2022-09-03T01:18:27;76978.94;;;-141.89;62.57
64704;BME280;51130;52.298;13.686;2022-09-03T01:21:07;76970.91;;;-141.89;62.73
64704;BME280;51130;52.298;13.686;2022-09-03T01:26:30;76970.91;;;-141.89;62.83
64704;BME280;51130;52.298;13.686;2022-09-03T01:29:05;76970.91;;;-141.89;62.73
64704;BME280;51130;52.298;13.686;2022-09-03T01:34:18;76968.91;;;-141.89;62.43
64704;BME280;51130;52.298;13.686;2022-09-03T01:39:23;76968.91;;;-141.89;62.78
64704;BME280;51130;52.298;13.686;2022-09-03T01:49:50;76970.91;;;-141.89;62.75
64704;BME280;51130;52.298;13.686;2022-09-03T01:52:28;76974.94;;;-141.89;62.46
64704;BME280;51130;52.298;13.686;2022-09-03T01:55:13;76978.94;;;-141.89;62.39
64704;BME280;51130;52.298;13.686;2022-09-03T02:00:16;76970.91;;;-141.89;62.79
64704;BME280;51130;52.298;13.686;2022-09-03T02:02:46;76978.94;;;-141.89;62.65
64704;BME280;51130;52.298;13.686;2022-09-03T02:07:47;76982.94;;;-141.89;62.86
64704;BME280;51130;52.298;13.686;2022-09-03T02:10:15;76984.94;;;-141.89;62.74
64704;BME280;51130;52.298;13.686;2022-09-03T02:12:44;76986.94;;;-141.89;63.04
64704;BME280;51130;52.298;13.686;2022-09-03T02:15:13;76984.94;;;-141.89;62.76
64704;BME280;51130;52.298;13.686;2022-09-03T02:17:40;76978.94;;;-141.89;62.84
64704;BME280;51130;52.298;13.686;2022-09-03T02:20:09;76986.94;;;-141.89;62.65
64704;BME280;51130;52.298;13.686;2022-09-03T02:22:37;76984.94;;;-141.89;62.53
64704;BME280;51130;52.298;13.686;2022-09-03T02:25:05;76990.94;;;-141.89;62.42
64704;BME280;51130;52.298;13.686;2022-09-03T02:27:32;76990.94;;;-141.89;62.63
64704;BME280;51130;52.298;13.686;2022-09-03T02:29:58;76990.94;;;-141.89;62.23
64704;BME280;51130;52.298;13.686;2022-09-03T02:32:25;76990.94;;;-141.89;61.76
64704;BME280;51130;52.298;13.686;2022-09-03T02:34:52;76990.94;;;-141.89;62.12
64704;BME280;51130;52.298;13.686;2022-09-03T02:37:18;76986.94;;;-141.89;62.24
64704;BME280;51130;52.298;13.686;2022-09-03T02:39:45;76984.94;;;-141.89;62.22
64704;BME280;51130;52.298;13.686;2022-09-03T02:42:12;76984.94;;;-141.89;62.12
64704;BME280;51130;52.298;13.686;2022-09-03T02:44:40;76980.94;;;-141.89;62.38
64704;BME280;51130;52.298;13.686;2022-09-03T02:47:08;76986.94;;;-141.89;62.17
64704;BME280;51130;52.298;13.686;2022-09-03T02:49:34;76976.94;;;-141.89;62.36
64704;BME280;51130;52.298;13.686;2022-09-03T02:52:03;76978.94;;;-141.89;62.45
64704;BME280;51130;52.298;13.686;2022-09-03T02:54:35;76978.94;;;-141.89;62.37
64704;BME280;51130;52.298;13.686;2022-09-03T02:57:08;76976.94;;;-141.89;62.44
64704;BME280;51130;52.298;13.686;2022-09-03T02:59:35;76976.94;;;-141.89;62.55
64704;BME280;51130;52.298;13.686;2022-09-03T03:02:02;76978.94;;;-141.89;62.65
64704;BME280;51130;52.298;13.686;2022-09-03T03:04:29;76974.94;;;-141.89;62.45
64704;BME280;51130;52.298;13.686;2022-09-03T03:06:56;76974.94;;;-141.89;62.65
64704;BME280;51130;52.298;13.686;2022-09-03T03:09:23;76968.91;;;-141.89;62.55
64704;BME280;51130;52.298;13.686;2022-09-03T03:11:49;76970.91;;;-141.89;62.45
64704;BME280;51130;52.298;13.686;2022-09-03T03:14:16;76974.94;;;-141.89;62.45
64704;BME280;51130;52.298;13.686;2022-09-03T03:16:43;76968.91;;;-141.89;62.71
64704;BME280;51130;52.298;13.686;2022-09-03T03:19:10;76970.91;;;-141.89;62.75
64704;BME280;51130;52.298;13.686;2022-09-03T03:21:36;76978.94;;;-141.89;62.72
64704;BME280;51130;52.298;13.686;2022-09-03T03:24:04;76982.94;;;-141.89;62.69
64704;BME280;51130;52.298;13.686;2022-09-03T03:26:32;76982.94;;;-141.89;62.48
64704;BME280;51130;52.298;13.686;2022-09-03T03:28:59;76982.94;;;-141.89;62.77
64704;BME280;51130;52.298;13.686;2022-09-03T03:31:26;76986.94;;;-141.89;62.85
64704;BME280;51130;52.298;13.686;2022-09-03T03:33:53;76986.94;;;-141.89;62.78
64704;BME280;51130;52.298;13.686;2022-09-03T03:36:20;76988.94;;;-141.89;62.90
64704;BME280;51130;52.298;13.686;2022-09-03T03:38:47;76994.94;;;-141.89;62.91
64704;BME280;51130;52.298;13.686;2022-09-03T03:41:14;76998.94;;;-141.89;62.82
64704;BME280;51130;52.298;13.686;2022-09-03T03:43:42;76998.94;;;-141.89;62.69
64704;BME280;51130;52.298;13.686;2022-09-03T03:46:09;77006.94;;;-141.89;62.63
64704;BME280;51130;52.298;13.686;2022-09-03T03:48:36;77006.94;;;-141.89;62.81
64704;BME280;51130;52.298;13.686;2022-09-03T03:51:04;77002.94;;;-141.89;62.94
64704;BME280;51130;52.298;13.686;2022-09-03T03:53:34;77004.94;;;-141.89;62.65
64704;BME280;51130;52.298;13.686;2022-09-03T03:56:02;77004.94;;;-141.89;62.37
64704;BME280;51130;52.298;13.686;2022-09-03T03:58:29;77000.94;;;-141.89;62.82
64704;BME280;51130;52.298;13.686;2022-09-03T04:01:03;76998.94;;;-141.89;62.82
64704;BME280;51130;52.298;13.686;2022-09-03T04:03:30;76998.94;;;-141.89;62.57
64704;BME280;51130;52.298;13.686;2022-09-03T04:05:58;76994.94;;;-141.89;62.22
64704;BME280;51130;52.298;13.686;2022-09-03T04:08:29;76994.94;;;-141.89;62.18
64704;BME280;51130;52.298;13.686;2022-09-03T04:10:59;76992.94;;;-141.89;61.68
64704;BME280;51130;52.298;13.686;2022-09-03T04:13:29;76982.94;;;-141.89;62.06
64704;BME280;51130;52.298;13.686;2022-09-03T04:16:03;76984.94;;;-141.89;62.03
64704;BME280;51130;52.298;13.686;2022-09-03T04:18:31;76986.94;;;-141.89;61.99
64704;BME280;51130;52.298;13.686;2022-09-03T04:20:58;76984.94;;;-141.89;62.23
64704;BME280;51130;52.298;13.686;2022-09-03T04:23:24;76988.94;;;-141.89;62.55
64704;BME280;51130;52.298;13.686;2022-09-03T04:25:51;76986.94;;;-141.89;62.17
64704;BME280;51130;52.298;13.686;2022-09-03T04:28:18;76988.94;;;-141.89;62.53
64704;BME280;51130;52.298;13.686;2022-09-03T04:30:44;76988.94;;;-141.89;62.29
64704;BME280;51130;52.298;13.686;2022-09-03T04:33:14;76986.94;;;-141.89;62.61
64704;BME280;51130;52.298;13.686;2022-09-03T04:35:41;76990.94;;;-141.89;62.55
64704;BME280;51130;52.298;13.686;2022-09-03T04:38:08;76990.94;;;-141.89;62.16
64704;BME280;51130;52.298;13.686;2022-09-03T04:40:35;76990.94;;;-141.89;62.73
64704;BME280;51130;52.298;13.686;2022-09-03T04:43:02;76990.94;;;-141.89;62.54
64704;BME280;51130;52.298;13.686;2022-09-03T04:45:28;76986.94;;;-141.89;62.67
64704;BME280;51130;52.298;13.686;2022-09-03T04:47:59;76986.94;;;-141.89;62.55
64704;BME280;51130;52.298;13.686;2022-09-03T04:50:26;76984.94;;;-141.89;62.71
64704;BME280;51130;52.298;13.686;2022-09-03T04:55:34;76984.94;;;-141.89;62.40
64704;BME280;51130;52.298;13.686;2022-09-03T04:58:00;76990.94;;;-141.89;62.33
64704;BME280;51130;52.298;13.686;2022-09-03T05:00:27;76990.94;;;-141.89;62.73
64704;BME280;51130;52.298;13.686;2022-09-03T05:02:54;76996.94;;;-141.89;62.68
64704;BME280;51130;52.298;13.686;2022-09-03T05:05:20;76998.94;;;-141.89;63.01
64704;BME280;51130;52.298;13.686;2022-09-03T05:07:46;76992.94;;;-141.89;62.79
64704;BME280;51130;52.298;13.686;2022-09-03T05:10:13;76994.94;;;-141.89;62.78
64704;BME280;51130;52.298;13.686;2022-09-03T05:12:46;76996.94;;;-141.89;63.19
64704;BME280;51130;52.298;13.686;2022-09-03T05:15:13;77002.94;;;-141.89;62.98
64704;BME280;51130;52.298;13.686;2022-09-03T05:17:39;76996.94;;;-141.89;62.70
64704;BME280;51130;52.298;13.686;2022-09-03T05:20:06;77002.94;;;-141.89;63.09
64704;BME280;51130;52.298;13.686;2022-09-03T05:22:33;77002.94;;;-141.89;63.17
64704;BME280;51130;52.298;13.686;2022-09-03T05:25:00;77006.94;;;-141.89;63.29
64704;BME280;51130;52.298;13.686;2022-09-03T05:27:27;77006.94;;;-141.89;63.46
64704;BME280;51130;52.298;13.686;2022-09-03T05:29:53;77006.94;;;-141.89;63.24
64704;BME280;51130;52.298;13.686;2022-09-03T05:32:20;77008.97;;;-141.89;62.97
64704;BME280;51130;52.298;13.686;2022-09-03T05:34:46;77002.94;;;-141.89;62.37
64704;BME280;51130;52.298;13.686;2022-09-03T05:37:12;76998.94;;;-141.89;62.58
64704;BME280;51130;52.298;13.686;2022-09-03T05:39:39;76998.94;;;-141.89;62.49
64704;BME280;51130;52.298;13.686;2022-09-03T05:42:05;77002.94;;;-141.89;62.41
64704;BME280;51130;52.298;13.686;2022-09-03T05:44:32;76994.94;;;-141.89;62.68
64704;BME280;51130;52.298;13.686;2022-09-03T05:46:58;76998.94;;;-141.89;62.53
64704;BME280;51130;52.298;13.686;2022-09-03T05:49:25;76996.94;;;-141.89;62.54
64704;BME280;51130;52.298;13.686;2022-09-03T05:51:52;76998.94;;;-141.89;62.58
64704;BME280;51130;52.298;13.686;2022-09-03T05:54:18;77002.94;;;-141.89;62.37
64704;BME280;51130;52.298;13.686;2022-09-03T05:56:44;76998.94;;;-141.89;62.81
64704;BME280;51130;52.298;13.686;2022-09-03T05:59:11;76990.94;;;-141.89;62.60
64704;BME280;51130;52.298;13.686;2022-09-03T06:01:40;76986.94;;;-141.89;62.04
64704;BME280;51130;52.298;13.686;2022-09-03T06:04:16;76986.94;;;-141.89;61.66
64704;BME280;51130;52.298;13.686;2022-09-03T06:06:44;76982.94;;;-141.89;61.24
64704;BME280;51130;52.298;13.686;2022-09-03T06:09:14;76972.94;;;-141.89;61.04
64704;BME280;51130;52.298;13.686;2022-09-03T06:11:43;76970.91;;;-141.89;60.80
64704;BME280;51130;52.298;13.686;2022-09-03T06:14:12;76978.94;;;-141.89;60.75
64704;BME280;51130;52.298;13.686;2022-09-03T06:16:40;76976.94;;;-141.89;60.77
64704;BME280;51130;52.298;13.686;2022-09-03T06:19:07;76970.91;;;-141.89;60.68
64704;BME280;51130;52.298;13.686;2022-09-03T06:21:39;76964.91;;;-141.89;60.45
64704;BME280;51130;52.298;13.686;2022-09-03T06:24:08;76978.94;;;-141.89;60.88
64704;BME280;51130;52.298;13.686;2022-09-03T06:26:37;76980.94;;;-141.89;60.63
64704;BME280;51130;52.298;13.686;2022-09-03T06:29:04;76980.94;;;-141.89;60.65
64704;BME280;51130;52.298;13.686;2022-09-03T06:31:30;76976.94;;;-141.89;60.73
64704;BME280;51130;52.298;13.686;2022-09-03T06:33:57;76978.94;;;-141.89;61.08
64704;BME280;51130;52.298;13.686;2022-09-03T06:36:29;76982.94;;;-141.89;60.60
64704;BME280;51130;52.298;13.686;2022-09-03T06:38:56;76980.94;;;-141.89;60.80
64704;BME280;51130;52.298;13.686;2022-09-03T06:41:24;76986.94;;;-141.89;60.86
64704;BME280;51130;52.298;13.686;2022-09-03T06:43:52;76986.94;;;-141.89;60.90
64704;BME280;51130;52.298;13.686;2022-09-03T06:46:20;76986.94;;;-141.89;60.69
64704;BME280;51130;52.298;13.686;2022-09-03T06:48:49;76986.94;;;-141.89;61.01
64704;BME280;51130;52.298;13.686;2022-09-03T06:51:19;76986.94;;;-141.89;60.95
64704;BME280;51130;52.298;13.686;2022-09-03T06:53:47;76990.94;;;-141.89;60.64
64704;BME280;51130;52.298;13.686;2022-09-03T06:56:15;76988.94;;;-141.89;61.04
64704;BME280;51130;52.298;13.686;2022-09-03T06:58:43;76990.94;;;-141.89;61.01
64704;BME280;51130;52.298;13.686;2022-09-03T07:01:13;76990.94;;;-141.89;61.04
64704;BME280;51130;52.298;13.686;2022-09-03T07:03:41;76990.94;;;-141.89;61.11
64704;BME280;51130;52.298;13.686;2022-09-03T07:06:09;76986.94;;;-141.89;61.17
64704;BME280;51130;52.298;13.686;2022-09-03T07:08:36;76992.94;;;-141.89;61.19
64704;BME280;51130;52.298;13.686;2022-09-03T07:11:03;76994.94;;;-141.89;61.14
64704;BME280;51130;52.298;13.686;2022-09-03T07:13:35;76990.94;;;-141.89;61.43
64704;BME280;51130;52.298;13.686;2022-09-03T07:16:03;76994.94;;;-141.89;61.39
64704;BME280;51130;52.298;13.686;2022-09-03T07:18:30;76990.94;;;-141.89;61.47
64704;BME280;51130;52.298;13.686;2022-09-03T07:21:00;76992.94;;;-141.89;61.44
64704;BME280;51130;52.298;13.686;2022-09-03T07:23:27;76998.94;;;-141.89;61.49
64704;BME280;51130;52.298;13.686;2022-09-03T07:25:55;76994.94;;;-141.89;61.59
64704;BME280;51130;52.298;13.686;2022-09-03T07:28:22;76996.94;;;-141.89;61.55
64704;BME280;51130;52.298;13.686;2022-09-03T07:30:53;76994.94;;;-141.89;61.47
64704;BME280;51130;52.298;13.686;2022-09-03T07:33:20;77002.94;;;-141.89;61.41
64704;BME280;51130;52.298;13.686;2022-09-03T07:35:46;77002.94;;;-141.89;61.45
64704;BME280;51130;52.298;13.686;2022-09-03T07:38:16;77000.94;;;-141.89;61.42
64704;BME280;51130;52.298;13.686;2022-09-03T07:40:45;76996.94;;;-141.89;61.17
64704;BME280;51130;52.298;13.686;2022-09-03T07:43:12;76996.94;;;-141.89;61.14
64704;BME280;51130;52.298;13.686;2022-09-03T07:45:38;76998.94;;;-141.89;61.17
64704;BME280;51130;52.298;13.686;2022-09-03T07:48:05;77002.94;;;-141.89;61.12
64704;BME280;51130;52.298;13.686;2022-09-03T07:50:31;76998.94;;;-141.89;61.56
64704;BME280;51130;52.298;13.686;2022-09-03T07:53:04;76998.94;;;-141.89;61.43
64704;BME280;51130;52.298;13.686;2022-09-03T07:55:30;76996.94;;;-141.89;61.59
64704;BME280;51130;52.298;13.686;2022-09-03T07:57:57;76998.94;;;-141.89;61.43
64704;BME280;51130;52.298;13.686;2022-09-03T08:00:24;76994.94;;;-141.89;61.47
64704;BME280;51130;52.298;13.686;2022-09-03T08:02:53;76998.94;;;-141.89;61.33
64704;BME280;51130;52.298;13.686;2022-09-03T08:05:21;76996.94;;;-141.89;61.03
64704;BME280;51130;52.298;13.686;2022-09-03T08:07:48;76996.94;;;-141.89;60.99
64704;BME280;51130;52.298;13.686;2022-09-03T08:10:14;76994.94;;;-141.89;60.57
64704;BME280;51130;52.298;13.686;2022-09-03T08:12:41;77000.94;;;-141.89;60.37
64704;BME280;51130;52.298;13.686;2022-09-03T08:15:08;76992.94;;;-141.89;59.69
64704;BME280;51130;52.298;13.686;2022-09-03T08:17:34;76992.94;;;-141.89;59.92
64704;BME280;51130;52.298;13.686;2022-09-03T08:20:02;76990.94;;;-141.89;60.21
64704;BME280;51130;52.298;13.686;2022-09-03T08:22:28;76996.94;;;-141.89;59.52
64704;BME280;51130;52.298;13.686;2022-09-03T08:24:55;76988.94;;;-141.89;59.08
64704;BME280;51130;52.298;13.686;2022-09-03T08:27:21;76986.94;;;-141.89;58.93
64704;BME280;51130;52.298;13.686;2022-09-03T08:29:50;76986.94;;;-141.89;58.31
64704;BME280;51130;52.298;13.686;2022-09-03T08:32:19;76982.94;;;-141.89;58.66
64704;BME280;51130;52.298;13.686;2022-09-03T08:34:46;76980.94;;;-141.89;57.18
64704;BME280;51130;52.298;13.686;2022-09-03T08:37:12;76978.94;;;-141.89;57.46
64704;BME280;51130;52.298;13.686;2022-09-03T08:39:38;76960.91;;;-141.89;57.62
64704;BME280;51130;52.298;13.686;2022-09-03T08:42:09;76958.91;;;-141.89;58.47
64704;BME280;51130;52.298;13.686;2022-09-03T08:44:43;76958.91;;;-141.89;58.31
64704;BME280;51130;52.298;13.686;2022-09-03T08:49:59;76946.91;;;-141.89;57.03
64704;BME280;51130;52.298;13.686;2022-09-03T08:52:28;76954.91;;;-141.89;58.44
64704;BME280;51130;52.298;13.686;2022-09-03T08:55:11;76950.91;;;-141.89;57.62
64704;BME280;51130;52.298;13.686;2022-09-03T08:57:49;76954.91;;;-141.89;58.49
64704;BME280;51130;52.298;13.686;2022-09-03T09:00:16;76944.91;;;-141.89;58.17
64704;BME280;51130;52.298;13.686;2022-09-03T09:05:11;76950.91;;;-141.89;58.71
64704;BME280;51130;52.298;13.686;2022-09-03T09:10:25;76934.91;;;-141.89;57.82
64704;BME280;51130;52.298;13.686;2022-09-03T09:15:27;76938.91;;;-141.89;56.57
64704;BME280;51130;52.298;13.686;2022-09-03T09:18:18;76934.91;;;-141.89;55.57
64704;BME280;51130;52.298;13.686;2022-09-03T09:20:48;76932.88;;;-141.89;56.49
64704;BME280;51130;52.298;13.686;2022-09-03T09:23:23;76922.88;;;-141.89;56.19
64704;BME280;51130;52.298;13.686;2022-09-03T09:25:51;76926.88;;;-141.89;55.69
64704;BME280;51130;52.298;13.686;2022-09-03T09:28:20;76926.88;;;-141.89;54.97
64704;BME280;51130;52.298;13.686;2022-09-03T09:30:48;76928.88;;;-141.89;54.77
64704;BME280;51130;52.298;13.686;2022-09-03T09:33:16;76922.88;;;-141.89;55.91
64704;BME280;51130;52.298;13.686;2022-09-03T09:35:43;76922.88;;;-141.89;54.57
64704;BME280;51130;52.298;13.686;2022-09-03T09:38:10;76920.88;;;-141.89;55.15
64704;BME280;51130;52.298;13.686;2022-09-03T09:40:38;76922.88;;;-141.89;56.08
64704;BME280;51130;52.298;13.686;2022-09-03T09:43:17;76922.88;;;-141.89;56.62
64704;BME280;51130;52.298;13.686;2022-09-03T09:45:47;76922.88;;;-141.89;56.29
64704;BME280;51130;52.298;13.686;2022-09-03T09:48:20;76926.88;;;-141.89;55.88
64704;BME280;51130;52.298;13.686;2022-09-03T09:50:47;76918.88;;;-141.89;56.17
64704;BME280;51130;52.298;13.686;2022-09-03T09:53:15;76930.88;;;-141.89;56.19
64704;BME280;51130;52.298;13.686;2022-09-03T09:55:50;76930.88;;;-141.89;56.32
64704;BME280;51130;52.298;13.686;2022-09-03T09:58:18;76926.88;;;-141.89;56.44
64704;BME280;51130;52.298;13.686;2022-09-03T10:00:54;76930.88;;;-141.89;56.08
64704;BME280;51130;52.298;13.686;2022-09-03T10:03:21;76926.88;;;-141.89;55.91
64704;BME280;51130;52.298;13.686;2022-09-03T10:05:57;76928.88;;;-141.89;56.62
64704;BME280;51130;52.298;13.686;2022-09-03T10:08:26;76926.88;;;-141.89;56.22
64704;BME280;51130;52.298;13.686;2022-09-03T10:10:52;76920.88;;;-141.89;55.85
64704;BME280;51130;52.298;13.686;2022-09-03T10:14:01;76922.88;;;-141.89;55.84
64704;BME280;51130;52.298;13.686;2022-09-03T10:18:39;76926.88;;;-141.89;55.60
64704;BME280;51130;52.298;13.686;2022-09-03T10:21:17;76926.88;;;-141.89;55.90
64704;BME280;51130;52.298;13.686;2022-09-03T10:28:38;76924.88;;;-141.89;55.78
64704;BME280;51130;52.298;13.686;2022-09-03T10:33:46;76922.88;;;-141.89;55.83
64704;BME280;51130;52.298;13.686;2022-09-03T10:36:18;76930.88;;;-141.89;54.05
64704;BME280;51130;52.298;13.686;2022-09-03T10:38:47;76924.88;;;-141.89;54.96
64704;BME280;51130;52.298;13.686;2022-09-03T10:41:27;76928.88;;;-141.89;54.32
64704;BME280;51130;52.298;13.686;2022-09-03T10:46:27;76922.88;;;-141.89;54.26
64704;BME280;51130;52.298;13.686;2022-09-03T10:51:30;76924.88;;;-141.89;54.59
64704;BME280;51130;52.298;13.686;2022-09-03T10:54:03;76924.88;;;-141.89;54.31
64704;BME280;51130;52.298;13.686;2022-09-03T10:56:35;76922.88;;;-141.89;54.82
64704;BME280;51130;52.298;13.686;2022-09-03T10:59:24;76926.88;;;-141.89;55.22
64704;BME280;51130;52.298;13.686;2022-09-03T11:04:45;76918.88;;;-141.89;55.16
64704;BME280;51130;52.298;13.686;2022-09-03T11:07:19;76914.88;;;-141.89;55.01
64704;BME280;51130;52.298;13.686;2022-09-03T11:09:51;76918.88;;;-141.89;53.51
64704;BME280;51130;52.298;13.686;2022-09-03T11:17:40;76914.88;;;-141.89;54.86
64704;BME280;51130;52.298;13.686;2022-09-03T11:20:26;76906.88;;;-141.89;54.75
64704;BME280;51130;52.298;13.686;2022-09-03T11:22:56;76910.88;;;-141.89;54.91
64704;BME280;51130;52.298;13.686;2022-09-03T11:25:26;76904.88;;;-141.89;53.79
64704;BME280;51130;52.298;13.686;2022-09-03T11:28:02;76902.88;;;-141.89;55.51
64704;BME280;51130;52.298;13.686;2022-09-03T11:33:20;76890.84;;;-141.89;55.64
64704;BME280;51130;52.298;13.686;2022-09-03T11:35:59;76888.84;;;-141.89;54.92
64704;BME280;51130;52.298;13.686;2022-09-03T11:38:26;76890.84;;;-141.89;54.12
64704;BME280;51130;52.298;13.686;2022-09-03T11:40:57;76890.84;;;-141.89;51.46
64704;BME280;51130;52.298;13.686;2022-09-03T11:43:26;76886.84;;;-141.89;52.98
64704;BME280;51130;52.298;13.686;2022-09-03T11:50:58;76902.88;;;-141.89;53.64
64704;BME280;51130;52.298;13.686;2022-09-03T11:53:26;76890.84;;;-141.89;53.42
64704;BME280;51130;52.298;13.686;2022-09-03T11:56:00;76884.84;;;-141.89;53.51
64704;BME280;51130;52.298;13.686;2022-09-03T11:58:38;76886.84;;;-141.89;51.21
64704;BME280;51130;52.298;13.686;2022-09-03T12:01:10;76874.84;;;-141.89;52.50
64704;BME280;51130;52.298;13.686;2022-09-03T12:06:19;76876.84;;;-141.89;50.34
64704;BME280;51130;52.298;13.686;2022-09-03T12:11:36;76872.84;;;-141.89;50.28
64704;BME280;51130;52.298;13.686;2022-09-03T12:21:58;76866.84;;;-141.89;51.24
64704;BME280;51130;52.298;13.686;2022-09-03T12:24:45;76862.84;;;-141.89;56.36
64704;BME280;51130;52.298;13.686;2022-09-03T12:27:21;76858.84;;;-141.89;51.07
64704;BME280;51130;52.298;13.686;2022-09-03T12:30:00;76858.84;;;-141.89;56.75
64704;BME280;51130;52.298;13.686;2022-09-03T12:32:28;76856.81;;;-141.89;56.85
64704;BME280;51130;52.298;13.686;2022-09-03T12:34:57;76860.84;;;-141.89;57.18
64704;BME280;51130;52.298;13.686;2022-09-03T12:37:35;76862.84;;;-141.89;57.32
64704;BME280;51130;52.298;13.686;2022-09-03T12:40:24;76860.84;;;-141.89;57.65
64704;BME280;51130;52.298;13.686;2022-09-03T12:42:52;76862.84;;;-141.89;57.18
64704;BME280;51130;52.298;13.686;2022-09-03T12:45:20;76858.84;;;-141.89;56.50
64704;BME280;51130;52.298;13.686;2022-09-03T12:47:48;76858.84;;;-141.89;57.60
64704;BME280;51130;52.298;13.686;2022-09-03T12:50:18;76858.84;;;-141.89;57.16
64704;BME280;51130;52.298;13.686;2022-09-03T12:57:45;76838.81;;;-141.89;57.66
64704;BME280;51130;52.298;13.686;2022-09-03T13:00:15;76838.81;;;-141.89;57.97
64704;BME280;51130;52.298;13.686;2022-09-03T13:05:17;76832.81;;;-141.89;57.76
64704;BME280;51130;52.298;13.686;2022-09-03T13:07:46;76834.81;;;-141.89;57.62
64704;BME280;51130;52.298;13.686;2022-09-03T13:10:26;76830.81;;;-141.89;57.56
64704;BME280;51130;52.298;13.686;2022-09-03T13:12:57;76828.81;;;-141.89;56.79
64704;BME280;51130;52.298;13.686;2022-09-03T13:15:24;76834.81;;;-141.89;56.10
64704;BME280;51130;52.298;13.686;2022-09-03T13:17:54;76826.81;;;-141.89;57.12
64704;BME280;51130;52.298;13.686;2022-09-03T13:20:34;76830.81;;;-141.89;57.85
64704;BME280;51130;52.298;13.686;2022-09-03T13:23:23;76826.81;;;-141.89;56.89
64704;BME280;51130;52.298;13.686;2022-09-03T13:25:57;76822.81;;;-141.89;56.71
64704;BME280;51130;52.298;13.686;2022-09-03T13:33:49;76824.81;;;-141.89;53.18
64704;BME280;51130;52.298;13.686;2022-09-03T13:36:20;76834.81;;;-141.89;55.44
64704;BME280;51130;52.298;13.686;2022-09-03T13:41:41;76834.81;;;-141.89;56.75
64704;BME280;51130;52.298;13.686;2022-09-03T13:46:42;76830.81;;;-141.89;57.24
64704;BME280;51130;52.298;13.686;2022-09-03T13:52:02;76826.81;;;-141.89;56.95
64704;BME280;51130;52.298;13.686;2022-09-03T13:54:33;76824.81;;;-141.89;57.11
64704;BME280;51130;52.298;13.686;2022-09-03T13:58:01;76822.81;;;-141.89;57.43
64704;BME280;51130;52.298;13.686;2022-09-03T14:00:06;76826.81;;;-141.89;56.58
64704;BME280;51130;52.298;13.686;2022-09-03T14:10:05;76822.81;;;-141.89;56.66
64704;BME280;51130;52.298;13.686;2022-09-03T14:12:44;76818.81;;;-141.89;57.51
64704;BME280;51130;52.298;13.686;2022-09-03T14:15:23;76826.81;;;-141.89;56.79
64704;BME280;51130;52.298;13.686;2022-09-03T14:20:28;76814.78;;;-141.89;55.74
64704;BME280;51130;52.298;13.686;2022-09-03T14:23:02;76806.78;;;-141.89;56.54
64704;BME280;51130;52.298;13.686;2022-09-03T14:25:29;76810.78;;;-141.89;55.92
64704;BME280;51130;52.298;13.686;2022-09-03T14:30:46;76814.78;;;-141.89;56.68
64704;BME280;51130;52.298;13.686;2022-09-03T14:33:24;76808.78;;;-141.89;56.37
64704;BME280;51130;52.298;13.686;2022-09-03T14:36:17;76806.78;;;-141.89;56.99
64704;BME280;51130;52.298;13.686;2022-09-03T14:38:56;76810.78;;;-141.89;56.38
64704;BME280;51130;52.298;13.686;2022-09-03T14:41:46;76810.78;;;-141.89;56.71
64704;BME280;51130;52.298;13.686;2022-09-03T14:44:25;76806.78;;;-141.89;56.41
64704;BME280;51130;52.298;13.686;2022-09-03T14:49:46;76812.78;;;-141.89;56.76
64704;BME280;51130;52.298;13.686;2022-09-03T14:52:21;76814.78;;;-141.89;57.02
64704;BME280;51130;52.298;13.686;2022-09-03T15:07:48;76804.78;;;-141.89;56.83
64704;BME280;51130;52.298;13.686;2022-09-03T15:12:49;76806.78;;;-141.89;56.33
64704;BME280;51130;52.298;13.686;2022-09-03T15:15:18;76808.78;;;-141.89;56.64